Forside
METAR-TAF:

METAR-TAF

Lufthavne :

Mount Pleasant Municipal Airport

Mount Pleasant, Michigan, USA

Breddekreds: 43-37N, længdekreds: 084-44W, højde: 230 m

Aktuelle vejr

Denne rapport blev lavet for 14 minutter siden, kl. 18:16 UTC
Vind 10 kt fra sydvest med vindstød på up til 17 kt
Temperatur 7°C
Fugtighed 53%
Tryk 1011 hPa
Sigt: 16.1 km
skyfri

METAR: KMOP 231816Z AUTO 22010G17KT 10SM CLR 07/M02 A2984 RMK AO2 T00701017

Tid: 13:30 (18:30 UTC)


TAF: fraværende

Vejrobservationer og prognoser fra mere end 4000 lufthavne (METAR og TAF).

De gule og røde prikker repræsenterer de meteorologiske stationer.

Flyt musen over at se navnet på stationen.

Så klik over at se vejr observationer og prognoser.

At skifte det kort: Klik på de grønne knapper med et sort kors for at zoome ind; på den grønne knap med en bindestreg for at zoome ud; eller på de grønne pile for tilstødende kort.


METAR-TAF: